Terminal Aerodrome Forecast
Issued by NWS Grand Junction, CO

Home | Current Version | Previous Version | Text Only | Print | Product List | Glossary On
Versions: 1 2 3 4 5 6 7 8 9 10 11 12 13
000
FTUS45 KGJT 061729
TAFGJT
TAF
KGJT 061729Z 0618/0718 11009KT P6SM OVC110
     FM062000 04004KT P6SM BKN120
     FM062200 32006KT P6SM BKN090
     FM070300 05005KT P6SM VCSH OVC070
     FM070600 35006KT P6SM OVC080
     FM071200 35005KT P6SM SCT080=

USA.gov is the U.S. government's official web portal to all federal, state and local government web resources and services.